Time;durP1;ratioP1;P1;durP2;ratioP2;P2;SDS_P1;SDS_P2;PMS_P1;PMS_P2;Temp;Humidity;BMP_temperature;BMP_pressure;BME280_temperature;BME280_humidity;BME280_pressure;Samples;Min_cycle;Max_cycle;Signal;HPM_P1;HPM_P2
2022/12/07 00:01:33;;;;;;;2.33;0.65;;;3.60;99.90;;;;;;5075884;28;20032;-82
2022/12/07 00:04:04;;;;;;;4.43;1.00;;;3.20;99.90;;;;;;5071974;28;20040;-82
2022/12/07 00:06:41;;;;;;;5.20;0.70;;;2.70;99.90;;;;;;5075230;28;20056;-81
2022/12/07 00:09:10;;;;;;;2.20;1.08;;;3.50;99.90;;;;;;5077398;28;20062;-81
2022/12/07 00:11:36;;;;;;;2.53;0.57;;;2.90;99.90;;;;;;5095492;28;20115;-80
2022/12/07 00:14:07;;;;;;;2.15;0.70;;;3.00;99.90;;;;;;5095446;28;20146;-80
2022/12/07 00:16:33;;;;;;;6.88;1.10;;;3.20;99.90;;;;;;5090914;28;20085;-80
2022/12/07 00:18:59;;;;;;;2.92;0.88;;;4.00;99.90;;;;;;5075003;28;20040;-80
2022/12/07 00:21:31;;;;;;;2.58;0.65;;;3.90;99.90;;;;;;5072588;28;20044;-81
2022/12/07 00:23:57;;;;;;;3.38;0.95;;;3.30;99.90;;;;;;5092988;28;20498;-81
2022/12/07 00:26:28;;;;;;;1.95;0.65;;;3.40;99.90;;;;;;5095483;28;20050;-81
2022/12/07 00:28:56;;;;;;;3.08;0.35;;;3.30;99.90;;;;;;5091713;28;20406;-81
2022/12/07 00:31:26;;;;;;;1.00;0.43;;;4.20;99.90;;;;;;5078029;28;20047;-81
2022/12/07 00:33:52;;;;;;;0.15;0.15;;;3.10;99.90;;;;;;5095007;28;20074;-81
2022/12/07 00:36:20;;;;;;;0.47;0.32;;;3.00;99.90;;;;;;5078150;28;20075;-80
2022/12/07 00:38:46;;;;;;;1.60;0.45;;;3.00;99.90;;;;;;5078316;28;20144;-81
2022/12/07 00:41:14;;;;;;;3.33;0.52;;;2.90;99.90;;;;;;5078292;28;20036;-81
2022/12/07 00:43:42;;;;;;;3.53;0.50;;;2.80;99.90;;;;;;5094819;28;20126;-81
2022/12/07 00:46:08;;;;;;;3.72;0.50;;;2.80;99.90;;;;;;5094843;28;20032;-81
2022/12/07 00:48:34;;;;;;;2.95;0.70;;;2.80;99.90;;;;;;5094624;28;20043;-81
2022/12/07 00:51:00;;;;;;;1.55;0.50;;;2.80;99.90;;;;;;5077901;28;20471;-81
2022/12/07 00:53:26;;;;;;;6.75;1.02;;;3.80;99.90;;;;;;5094943;28;20075;-81
2022/12/07 00:55:56;;;;;;;2.63;0.60;;;3.00;99.90;;;;;;5077509;28;20039;-81
2022/12/07 00:58:22;;;;;;;1.58;0.47;;;3.40;99.90;;;;;;5078376;28;20043;-80
2022/12/07 01:00:48;;;;;;;5.03;0.63;;;2.90;99.90;;;;;;5060063;28;20044;-80
2022/12/07 01:03:16;;;;;;;4.78;0.80;;;2.90;99.90;;;;;;5091225;28;20043;-81
2022/12/07 01:05:53;;;;;;;2.45;0.73;;;4.20;99.90;;;;;;5091065;28;20059;-81
2022/12/07 01:08:19;;;;;;;4.15;1.10;;;2.90;99.90;;;;;;5074451;28;20048;-81
2022/12/07 01:10:45;;;;;;;0.98;0.35;;;2.90;99.90;;;;;;5074401;28;20190;-81
2022/12/07 01:13:11;;;;;;;1.25;0.47;;;3.10;99.90;;;;;;5075417;28;20159;-81
2022/12/07 01:15:44;;;;;;;8.48;0.75;;;4.00;99.90;;;;;;5074328;28;20119;-81
2022/12/07 01:18:11;;;;;;;1.75;0.45;;;3.10;99.90;;;;;;5089741;28;20043;-80
2022/12/07 01:20:37;;;;;;;2.63;0.90;;;3.00;99.90;;;;;;5077648;28;20047;-81
2022/12/07 01:23:03;;;;;;;2.38;0.55;;;3.00;99.90;;;;;;5077346;28;20051;-81
2022/12/07 01:25:29;;;;;;;0.47;0.30;;;2.90;99.90;;;;;;5094487;28;20040;-81
2022/12/07 01:27:54;;;;;;;3.45;0.70;;;2.90;99.90;;;;;;5094379;28;20097;-81
2022/12/07 01:30:20;;;;;;;3.20;1.10;;;2.80;99.90;;;;;;5094679;28;20051;-81
2022/12/07 01:32:46;;;;;;;1.55;0.40;;;2.70;99.90;;;;;;5094679;28;20078;-81
2022/12/07 01:35:11;;;;;;;2.83;0.52;;;2.90;99.90;;;;;;5077560;28;20372;-81
2022/12/07 01:37:38;;;;;;;0.98;0.47;;;2.60;99.90;;;;;;5061133;28;20042;-81
2022/12/07 01:40:06;;;;;;;0.22;0.20;;;2.50;99.90;;;;;;5094419;28;20040;-81
2022/12/07 01:42:32;;;;;;;4.22;0.50;;;2.50;99.90;;;;;;5092737;28;20130;-81
2022/12/07 01:45:36;;;;;;;3.55;0.85;;;2.50;99.90;;;;;;5074411;28;20059;-81
2022/12/07 01:48:02;;;;;;;3.65;0.40;;;2.60;99.90;;;;;;5067667;28;20565;-81
2022/12/07 01:50:31;;;;;;;3.75;0.82;;;2.70;99.90;;;;;;5076096;28;20360;-81
2022/12/07 01:52:59;;;;;;;1.30;0.45;;;3.50;99.90;;;;;;5093080;28;20391;-81
2022/12/07 01:55:26;;;;;;;0.52;0.20;;;3.00;99.90;;;;;;5073944;28;20119;-81
2022/12/07 01:57:53;;;;;;;2.55;0.50;;;2.90;99.90;;;;;;5073899;28;20483;-81
2022/12/07 02:00:20;;;;;;;2.08;0.60;;;4.00;99.90;;;;;;5057439;28;20497;-81
2022/12/07 02:02:54;;;;;;;1.83;0.70;;;2.90;99.90;;;;;;5057088;28;20044;-81
2022/12/07 02:05:19;;;;;;;1.55;0.60;;;3.40;99.90;;;;;;5092708;28;20422;-81
2022/12/07 02:07:47;;;;;;;2.40;0.60;;;3.10;99.90;;;;;;5095558;28;20047;-81
2022/12/07 02:10:19;;;;;;;3.42;0.47;;;4.50;99.90;;;;;;5097939;28;20040;-81
2022/12/07 02:12:48;;;;;;;2.95;0.45;;;3.20;99.90;;;;;;5080465;28;20032;-81
2022/12/07 02:15:15;;;;;;;0.75;0.30;;;3.20;99.90;;;;;;5110723;28;20043;-81
2022/12/07 02:18:17;;;;;;;3.50;0.50;;;3.20;99.90;;;;;;5097909;28;20047;-81
2022/12/07 02:21:06;;;;;;;0.75;0.30;;;3.20;99.90;;;;;;5094600;28;20050;-81
2022/12/07 02:24:10;;;;;;;3.80;0.40;;;3.20;99.90;;;;;;5060823;28;20046;-81
2022/12/07 02:26:54;;;;;;;1.65;0.35;;;3.20;99.90;;;;;;5115917;27;20454;-81
2022/12/07 02:29:24;;;;;;;0.20;0.13;;;3.10;99.90;;;;;;5101315;28;20044;-81
2022/12/07 02:32:13;;;;;;;2.05;0.38;;;3.00;99.90;;;;;;5109966;28;20551;-85
2022/12/07 02:34:49;;;;;;;0.75;0.45;;;3.00;99.90;;;;;;5105505;27;20474;-84
2022/12/07 02:37:22;;;;;;;;;;;2.90;99.90;;;;;;5097676;28;20495;-85
2022/12/07 02:40:08;;;;;;;3.03;1.35;;;2.80;99.90;;;;;;5097118;28;19915;-84
2022/12/07 02:42:43;;;;;;;2.23;0.67;;;3.20;99.90;;;;;;5115004;28;20036;-84
2022/12/07 02:45:13;;;;;;;0.85;0.43;;;2.70;99.90;;;;;;5080204;28;20035;-82
2022/12/07 02:47:41;;;;;;;1.23;0.40;;;2.70;99.90;;;;;;5106316;28;20121;-81
2022/12/07 02:50:07;;;;;;;2.42;0.40;;;3.00;99.90;;;;;;5113845;28;20100;-81
2022/12/07 02:52:33;;;;;;;3.72;0.35;;;2.70;99.90;;;;;;5097538;28;20071;-81
2022/12/07 02:54:59;;;;;;;2.15;0.40;;;4.40;99.90;;;;;;5096921;28;20066;-81
2022/12/07 02:57:43;;;;;;;1.25;0.40;;;2.80;99.90;;;;;;5060522;28;20038;-81
2022/12/07 03:00:17;;;;;;;2.15;0.55;;;3.70;99.90;;;;;;5095399;28;20097;-81
2022/12/07 03:02:54;;;;;;;3.17;0.60;;;2.80;99.90;;;;;;5114106;28;20039;-81
2022/12/07 03:05:44;;;;;;;1.40;0.30;;;2.70;99.90;;;;;;5113501;28;20067;-81
2022/12/07 03:08:18;;;;;;;0.98;0.30;;;2.60;99.90;;;;;;5059732;28;20044;-81
2022/12/07 03:11:02;;;;;;;0.32;0.30;;;2.50;99.90;;;;;;5076443;28;20123;-80
2022/12/07 03:13:47;;;;;;;1.40;0.43;;;2.40;99.90;;;;;;5076401;28;20047;-81
2022/12/07 03:16:20;;;;;;;0.90;0.45;;;2.40;99.90;;;;;;5076794;28;20036;-81
2022/12/07 03:19:07;;;;;;;4.18;0.73;;;2.30;99.90;;;;;;5082005;23;20058;-80
2022/12/07 03:21:40;;;;;;;0.85;0.30;;;2.10;99.90;;;;;;5076624;28;20040;-81
2022/12/07 03:24:15;;;;;;;0.47;0.38;;;1.80;99.90;;;;;;5076525;28;20059;-81
2022/12/07 03:27:02;;;;;;;1.65;0.40;;;1.90;99.90;;;;;;5058466;28;20040;-81
2022/12/07 03:29:38;;;;;;;0.45;0.25;;;1.80;99.90;;;;;;5056152;28;20515;-81
2022/12/07 03:32:07;;;;;;;1.95;0.80;;;1.70;99.90;;;;;;5056148;28;20040;-81
2022/12/07 03:35:12;;;;;;;3.20;0.83;;;1.60;99.90;;;;;;5056155;28;20036;-81
2022/12/07 03:38:04;;;;;;;1.43;0.40;;;1.80;99.90;;;;;;5058835;28;20047;-81
2022/12/07 03:40:49;;;;;;;2.67;0.70;;;1.60;99.90;;;;;;5075700;28;20548;-80
2022/12/07 03:43:16;;;;;;;1.37;0.40;;;1.60;99.90;;;;;;5076076;28;20051;-81
2022/12/07 03:45:46;;;;;;;3.17;0.50;;;1.60;99.90;;;;;;5059008;28;20080;-81
2022/12/07 03:48:43;;;;;;;5.50;0.87;;;1.70;99.90;;;;;;5074216;28;20043;-81
2022/12/07 03:51:19;;;;;;;0.30;0.10;;;1.80;99.90;;;;;;5075210;28;20449;-81
2022/12/07 03:54:07;;;;;;;2.37;1.43;;;1.90;99.90;;;;;;5075603;28;20040;-85
2022/12/07 03:56:34;;;;;;;4.07;0.50;;;2.10;99.90;;;;;;5075504;28;20051;-85
2022/12/07 03:59:00;;;;;;;5.73;0.80;;;2.30;99.90;;;;;;5074724;28;20055;-85
2022/12/07 04:01:26;;;;;;;5.20;0.77;;;2.60;99.90;;;;;;5093857;28;20040;-81
2022/12/07 04:03:51;;;;;;;4.72;0.63;;;3.60;99.90;;;;;;5058836;28;20082;-81
2022/12/07 04:06:17;;;;;;;5.00;0.87;;;3.00;99.90;;;;;;5092381;28;20437;-81
2022/12/07 04:08:43;;;;;;;3.90;0.67;;;3.10;99.90;;;;;;5054928;28;20036;-81
2022/12/07 04:11:08;;;;;;;1.27;0.40;;;3.10;99.90;;;;;;5055228;28;20037;-85
2022/12/07 04:14:18;;;;;;;3.25;0.45;;;3.10;99.90;;;;;;5055320;28;20511;-85
2022/12/07 04:16:20;;;;;;;1.00;0.20;;;3.70;99.90;;;;;;5075420;28;20098;-85
2022/12/07 04:18:46;;;;;;;4.65;0.50;;;3.20;99.90;;;;;;5074184;28;20052;-85
2022/12/07 04:21:11;;;;;;;4.20;0.40;;;3.70;99.90;;;;;;5075155;28;20083;-82
2022/12/07 04:23:37;;;;;;;4.68;0.60;;;3.00;99.90;;;;;;5041958;28;20040;-82
2022/12/07 04:26:03;;;;;;;2.15;0.85;;;2.90;99.90;;;;;;5075013;28;20107;-82
2022/12/07 04:28:28;;;;;;;1.73;0.70;;;2.90;99.90;;;;;;5058497;28;20483;-85
2022/12/07 04:30:54;;;;;;;1.17;0.35;;;2.90;99.90;;;;;;5073837;28;20044;-85
2022/12/07 04:33:20;;;;;;;2.88;0.75;;;3.80;99.90;;;;;;5058346;28;20056;-85
2022/12/07 04:35:45;;;;;;;5.13;0.47;;;3.70;99.90;;;;;;5074526;28;20446;-85
2022/12/07 04:38:11;;;;;;;1.08;0.45;;;3.90;99.90;;;;;;5058166;28;20101;-85
2022/12/07 04:40:36;;;;;;;3.15;0.65;;;2.60;99.90;;;;;;5074209;28;20055;-85
2022/12/07 04:43:02;;;;;;;2.20;0.60;;;2.60;99.90;;;;;;5091674;28;20051;-85
2022/12/07 04:45:31;;;;;;;2.53;0.80;;;2.90;99.90;;;;;;5093114;28;20750;-85
2022/12/07 04:47:56;;;;;;;4.75;0.93;;;2.50;99.90;;;;;;5091773;28;20130;-85
2022/12/07 04:50:22;;;;;;;1.45;0.85;;;2.50;99.90;;;;;;5089693;28;20442;-85
2022/12/07 04:52:48;;;;;;;2.28;0.50;;;2.50;99.90;;;;;;5092903;28;20067;-85
2022/12/07 04:55:14;;;;;;;2.90;0.40;;;2.40;99.90;;;;;;5074828;28;20032;-85
2022/12/07 04:57:39;;;;;;;3.13;0.20;;;2.40;99.90;;;;;;5074608;28;20032;-85
2022/12/07 05:00:06;;;;;;;3.33;0.60;;;3.10;99.90;;;;;;5090848;28;20097;-81
2022/12/07 05:02:31;;;;;;;2.73;0.33;;;2.30;99.90;;;;;;5054528;28;20514;-81
2022/12/07 05:04:57;;;;;;;1.85;0.43;;;3.00;99.90;;;;;;5054647;28;20048;-81
2022/12/07 05:07:23;;;;;;;3.33;0.65;;;2.30;99.90;;;;;;5054660;28;20044;-81
2022/12/07 05:09:48;;;;;;;0.88;0.38;;;2.30;99.90;;;;;;5087899;28;20412;-81
2022/12/07 05:12:14;;;;;;;2.42;0.80;;;2.20;99.90;;;;;;5068046;28;20090;-81
2022/12/07 05:14:39;;;;;;;2.25;0.70;;;2.60;99.90;;;;;;5057797;28;20047;-81
2022/12/07 05:17:05;;;;;;;3.03;0.30;;;3.60;99.90;;;;;;5074375;28;20032;-81
2022/12/07 05:19:31;;;;;;;1.95;0.43;;;2.20;99.90;;;;;;5057626;28;20086;-81
2022/12/07 05:21:57;;;;;;;2.47;0.43;;;2.10;99.90;;;;;;5073144;28;20514;-81
2022/12/07 05:24:22;;;;;;;2.40;0.45;;;2.10;99.90;;;;;;5091272;28;20040;-81
2022/12/07 05:26:48;;;;;;;3.10;0.95;;;2.10;99.90;;;;;;5074493;28;20162;-81
2022/12/07 05:29:16;;;;;;;0.57;0.37;;;2.10;99.90;;;;;;5074227;28;20042;-81
2022/12/07 05:31:42;;;;;;;4.00;0.80;;;2.20;99.90;;;;;;5072886;28;20067;-81
2022/12/07 05:34:09;;;;;;;7.03;0.70;;;2.30;99.90;;;;;;5108110;28;20103;-85
2022/12/07 05:36:35;;;;;;;1.58;0.40;;;2.40;99.90;;;;;;5074545;28;20044;-85
2022/12/07 05:39:01;;;;;;;1.75;0.70;;;3.70;99.90;;;;;;5063835;28;20504;-85
2022/12/07 05:44:11;;;;;;;0.90;0.57;;;2.70;99.90;;;;;;5074688;28;20443;-85
2022/12/07 05:46:37;;;;;;;1.27;0.47;;;2.80;99.90;;;;;;5076119;28;20044;-85
2022/12/07 05:49:03;;;;;;;3.85;0.38;;;2.90;99.90;;;;;;5059276;28;20040;-84
2022/12/07 05:51:28;;;;;;;2.05;0.47;;;3.00;99.90;;;;;;5068522;28;20083;-81
2022/12/07 05:53:54;;;;;;;1.65;0.40;;;3.00;99.90;;;;;;5061211;28;20032;-80
2022/12/07 05:56:20;;;;;;;4.35;0.60;;;3.00;99.90;;;;;;5044552;28;20075;-81
2022/12/07 06:01:30;;;;;;;3.67;0.80;;;3.00;99.90;;;;;;5077952;28;20430;-80
2022/12/07 06:03:56;;;;;;;2.88;1.20;;;2.90;99.90;;;;;;5060859;28;20040;-80
2022/12/07 06:06:21;;;;;;;2.72;1.00;;;2.60;99.90;;;;;;5077630;28;20055;-80
2022/12/07 06:08:47;;;;;;;2.85;0.98;;;2.70;99.90;;;;;;5077447;28;20047;-80
2022/12/07 06:14:04;;;;;;;1.48;0.65;;;2.60;99.90;;;;;;5042168;28;20426;-80
2022/12/07 06:16:30;;;;;;;1.13;0.85;;;2.70;99.90;;;;;;5044973;28;20024;-80
2022/12/07 06:18:56;;;;;;;1.35;0.40;;;3.30;99.90;;;;;;5077440;28;20123;-80
2022/12/07 06:21:22;;;;;;;0.93;0.37;;;2.90;99.90;;;;;;5060163;28;20484;-80
2022/12/07 06:23:47;;;;;;;8.23;0.70;;;2.80;99.90;;;;;;5090855;28;20511;-80
2022/12/07 06:26:13;;;;;;;1.60;0.40;;;3.50;99.90;;;;;;5057237;28;20048;-80
2022/12/07 06:28:40;;;;;;;2.30;0.85;;;3.00;99.90;;;;;;5073867;28;20392;-80
2022/12/07 06:31:06;;;;;;;0.13;0.13;;;3.10;99.90;;;;;;5069000;28;20513;-80
2022/12/07 06:33:33;;;;;;;0.65;0.25;;;3.00;99.90;;;;;;5060545;28;20121;-80
2022/12/07 06:35:58;;;;;;;0.20;0.20;;;3.00;99.90;;;;;;5077020;28;20080;-80
2022/12/07 06:38:24;;;;;;;1.20;0.30;;;2.90;99.90;;;;;;5060374;28;20067;-80
2022/12/07 06:40:50;;;;;;;0.80;0.50;;;2.80;99.90;;;;;;5058798;28;20503;-81
2022/12/07 06:43:16;;;;;;;1.02;0.52;;;2.70;99.90;;;;;;5076767;28;20200;-81
2022/12/07 06:45:42;;;;;;;2.15;0.77;;;2.60;99.90;;;;;;5077101;28;20040;-81
2022/12/07 06:48:08;;;;;;;4.30;0.40;;;2.60;99.90;;;;;;5077286;28;20039;-81
2022/12/07 06:50:33;;;;;;;4.22;0.60;;;2.40;99.90;;;;;;5059440;28;20150;-81
2022/12/07 06:52:59;;;;;;;1.52;0.68;;;2.30;99.90;;;;;;5076973;28;20043;-81
2022/12/07 06:55:25;;;;;;;0.52;0.38;;;2.30;99.90;;;;;;5075957;28;20097;-81
2022/12/07 06:57:50;;;;;;;7.30;4.22;;;2.30;99.90;;;;;;5060385;28;20563;-80
2022/12/07 07:00:16;;;;;;;4.18;0.47;;;2.40;99.90;;;;;;5076782;28;20097;-80
2022/12/07 07:02:42;;;;;;;8.52;1.00;;;2.60;99.90;;;;;;5059500;28;20487;-80
2022/12/07 07:05:08;;;;;;;0.70;0.40;;;2.70;99.90;;;;;;5076485;28;20052;-80
2022/12/07 07:07:34;;;;;;;1.88;0.60;;;2.70;99.90;;;;;;5059715;28;20072;-80
2022/12/07 07:09:59;;;;;;;3.78;0.90;;;2.80;99.90;;;;;;5043116;28;20051;-80
2022/12/07 07:12:25;;;;;;;6.15;1.35;;;3.70;99.90;;;;;;5082812;28;20072;-80
2022/12/07 07:14:51;;;;;;;2.40;0.95;;;2.90;99.90;;;;;;5056788;28;20756;-80
2022/12/07 07:17:16;;;;;;;2.83;0.82;;;3.70;99.90;;;;;;5050118;28;20036;-80
2022/12/07 07:19:42;;;;;;;0.65;0.55;;;3.30;99.90;;;;;;5076337;28;20059;-80
2022/12/07 07:22:07;;;;;;;0.73;0.32;;;2.80;99.90;;;;;;5071902;28;20357;-80
2022/12/07 07:24:33;;;;;;;0.45;0.43;;;2.70;99.90;;;;;;5056319;28;20055;-80
2022/12/07 07:26:59;;;;;;;2.00;1.33;;;2.70;99.90;;;;;;5055937;28;20492;-80
2022/12/07 07:29:24;;;;;;;3.17;0.60;;;2.60;99.90;;;;;;5056147;28;20127;-80
2022/12/07 07:31:50;;;;;;;4.32;0.73;;;2.80;99.90;;;;;;5039486;28;20039;-85
2022/12/07 07:34:16;;;;;;;1.95;0.68;;;2.40;99.90;;;;;;5056989;28;20171;-84
2022/12/07 07:36:42;;;;;;;1.83;0.50;;;2.30;99.90;;;;;;5039469;28;20083;-85
2022/12/07 07:39:07;;;;;;;8.57;1.48;;;2.20;99.90;;;;;;5055797;28;20550;-85
2022/12/07 07:41:33;;;;;;;8.52;2.05;;;2.70;99.90;;;;;;5056031;28;20489;-82
2022/12/07 07:43:59;;;;;;;6.50;2.00;;;2.00;99.90;;;;;;5057004;28;20130;-81
2022/12/07 07:46:24;;;;;;;5.45;1.33;;;1.90;99.90;;;;;;5055986;28;20071;-85
2022/12/07 07:48:50;;;;;;;5.95;1.65;;;1.90;99.90;;;;;;5055584;28;20051;-85
2022/12/07 07:51:16;;;;;;;2.67;1.30;;;1.90;99.90;;;;;;5064507;28;20071;-85
2022/12/07 07:53:44;;;;;;;3.40;0.82;;;2.00;99.90;;;;;;5087416;28;20033;-85
2022/12/07 07:56:10;;;;;;;2.27;0.80;;;3.10;99.90;;;;;;5055750;28;20045;-84
2022/12/07 07:58:36;;;;;;;5.88;1.00;;;2.50;99.90;;;;;;5073157;28;20098;-84
2022/12/07 08:01:05;;;;;;;8.63;1.02;;;2.70;99.90;;;;;;5093839;28;20076;-85
2022/12/07 08:03:31;;;;;;;0.50;0.50;;;2.70;99.90;;;;;;5091194;28;20127;-80
2022/12/07 08:05:57;;;;;;;1.67;0.80;;;2.80;99.90;;;;;;5055378;28;20119;-80
2022/12/07 08:08:22;;;;;;;3.47;0.55;;;2.80;99.90;;;;;;5055205;28;20041;-80
2022/12/07 08:10:48;;;;;;;3.38;1.00;;;2.80;99.90;;;;;;5055142;28;20041;-80
2022/12/07 08:13:15;;;;;;;3.07;1.30;;;3.10;99.90;;;;;;5055405;28;20115;-80
2022/12/07 08:15:46;;;;;;;4.50;0.82;;;2.70;99.90;;;;;;5102821;28;20056;-81
2022/12/07 08:18:12;;;;;;;2.45;0.75;;;2.60;99.90;;;;;;5073140;28;20032;-81
2022/12/07 08:20:39;;;;;;;2.40;0.60;;;3.80;99.90;;;;;;5075175;28;20109;-85
2022/12/07 08:23:06;;;;;;;1.20;0.75;;;3.00;99.90;;;;;;5075071;28;20127;-85
2022/12/07 08:25:32;;;;;;;3.80;0.70;;;2.50;99.90;;;;;;5071225;28;20437;-81
2022/12/07 08:28:00;;;;;;;2.72;0.65;;;2.50;99.90;;;;;;5074891;28;20424;-81
2022/12/07 08:30:26;;;;;;;3.45;1.35;;;3.70;99.90;;;;;;5074815;28;20083;-81
2022/12/07 08:32:52;;;;;;;2.00;1.00;;;2.50;99.90;;;;;;5074774;28;20511;-81
2022/12/07 08:35:18;;;;;;;5.53;1.88;;;2.70;99.90;;;;;;5068410;28;20075;-81
2022/12/07 08:37:44;;;;;;;7.05;1.85;;;3.00;99.90;;;;;;5038547;28;20534;-81
2022/12/07 08:40:14;;;;;;;6.95;2.15;;;3.50;99.90;;;;;;5038216;28;20093;-85
2022/12/07 08:42:41;;;;;;;6.82;1.67;;;3.40;99.90;;;;;;5071795;28;20041;-85
2022/12/07 08:45:10;;;;;;;3.67;1.42;;;4.20;99.90;;;;;;5089291;28;20044;-85
2022/12/07 08:47:39;;;;;;;5.30;1.45;;;4.30;99.90;;;;;;5073109;28;20522;-87
2022/12/07 08:50:07;;;;;;;6.97;1.05;;;5.70;99.90;;;;;;5054479;28;20040;-85
2022/12/07 08:52:35;;;;;;;3.67;0.88;;;6.00;99.90;;;;;;5074358;28;20046;-85
2022/12/07 08:55:03;;;;;;;6.82;1.33;;;7.40;99.90;;;;;;5074945;28;20365;-81
2022/12/07 08:57:29;;;;;;;1.48;0.80;;;6.90;99.90;;;;;;5074105;28;20399;-81
2022/12/07 08:59:55;;;;;;;1.17;0.60;;;7.00;99.90;;;;;;5057870;28;20032;-81
2022/12/07 09:02:21;;;;;;;3.47;1.17;;;6.60;99.90;;;;;;5074495;28;20064;-81
2022/12/07 09:04:47;;;;;;;7.47;1.55;;;7.10;99.90;;;;;;5074424;28;20126;-81
2022/12/07 09:07:13;;;;;;;9.60;1.10;;;6.00;99.90;;;;;;5060909;28;20087;-81
2022/12/07 09:09:38;;;;;;;3.08;0.90;;;5.50;99.90;;;;;;5054257;28;20044;-81
2022/12/07 09:12:04;;;;;;;1.55;0.70;;;5.30;99.90;;;;;;5054598;28;20480;-81
2022/12/07 09:14:30;;;;;;;3.33;1.08;;;5.10;99.90;;;;;;5054445;28;20037;-81
2022/12/07 09:17:08;;;;;;;5.38;0.82;;;4.90;99.90;;;;;;5039286;28;20249;-81
2022/12/07 09:19:34;;;;;;;3.90;0.43;;;4.80;99.90;;;;;;5060959;28;20056;-81
2022/12/07 09:22:00;;;;;;;2.63;0.60;;;4.70;99.90;;;;;;5077777;28;20477;-81
2022/12/07 09:24:25;;;;;;;4.53;0.75;;;4.50;99.90;;;;;;5061042;28;20044;-81
2022/12/07 09:26:51;;;;;;;2.38;1.00;;;4.60;99.90;;;;;;5059865;28;20372;-81
2022/12/07 09:29:17;;;;;;;4.18;1.08;;;4.20;99.90;;;;;;5065774;28;20393;-81
2022/12/07 09:31:42;;;;;;;3.88;0.90;;;4.50;99.90;;;;;;5061283;28;20040;-81
2022/12/07 09:34:08;;;;;;;3.20;0.75;;;4.60;99.90;;;;;;5044607;28;20535;-81
2022/12/07 09:36:34;;;;;;;2.35;0.88;;;4.80;99.90;;;;;;5060970;28;20488;-81
2022/12/07 09:39:00;;;;;;;4.20;1.15;;;5.50;99.90;;;;;;5078128;28;20040;-81
2022/12/07 09:41:27;;;;;;;4.28;1.73;;;5.30;99.90;;;;;;5094585;28;20044;-81
2022/12/07 09:44:02;;;;;;;6.30;2.85;;;5.80;99.90;;;;;;5044163;28;20082;-81
2022/12/07 09:46:30;;;;;;;4.55;1.42;;;6.60;99.90;;;;;;5061124;28;20067;-81
2022/12/07 09:48:55;;;;;;;2.75;1.52;;;7.20;99.90;;;;;;5077403;28;20053;-81
2022/12/07 09:51:23;;;;;;;2.85;1.20;;;7.40;99.90;;;;;;5053685;28;20043;-81
2022/12/07 09:53:50;;;;;;;3.55;0.85;;;7.90;99.90;;;;;;5080842;28;20048;-81
2022/12/07 09:56:18;;;;;;;2.80;1.08;;;7.00;99.90;;;;;;5080745;28;20039;-81
2022/12/07 09:58:45;;;;;;;6.90;1.17;;;6.80;99.90;;;;;;5071420;28;20547;-80
2022/12/07 10:01:19;;;;;;;2.67;0.75;;;6.60;99.90;;;;;;5060552;28;20079;-81
2022/12/07 10:03:51;;;;;;;4.95;1.42;;;6.40;99.90;;;;;;5060837;28;20050;-81
2022/12/07 10:06:17;;;;;;;2.75;0.98;;;6.50;99.90;;;;;;5044139;28;20067;-81
2022/12/07 10:08:43;;;;;;;7.85;1.65;;;6.30;99.90;;;;;;5066839;28;20047;-81
2022/12/07 10:11:10;;;;;;;3.55;1.55;;;6.30;99.90;;;;;;5063922;28;20043;-81
2022/12/07 10:13:48;;;;;;;6.75;1.17;;;6.40;99.90;;;;;;5063880;28;20036;-81
2022/12/07 10:16:38;;;;;;;6.13;1.02;;;6.50;99.90;;;;;;5114385;28;20032;-81
2022/12/07 10:19:33;;;;;;;3.22;1.13;;;7.00;99.90;;;;;;5063522;28;20056;-81
2022/12/07 10:22:16;;;;;;;5.47;1.15;;;7.20;99.90;;;;;;5062032;28;20040;-81
2022/12/07 10:24:46;;;;;;;6.35;1.45;;;7.20;99.90;;;;;;5080708;28;20418;-81
2022/12/07 10:27:32;;;;;;;9.82;2.08;;;7.40;99.90;;;;;;5063613;28;20051;-81
2022/12/07 10:29:59;;;;;;;7.65;1.38;;;7.60;99.90;;;;;;5077110;28;20399;-81
2022/12/07 10:32:32;;;;;;;3.83;1.05;;;7.80;99.90;;;;;;5043892;28;20123;-81
2022/12/07 10:35:19;;;;;;;9.07;1.27;;;8.10;99.90;;;;;;5060825;28;20398;-82
2022/12/07 10:37:45;;;;;;;;;;;8.20;99.90;;;;;;5077912;28;20174;-82
2022/12/07 10:40:28;;;;;;;4.32;1.13;;;8.40;99.90;;;;;;5076426;28;19916;-82
2022/12/07 10:43:12;;;;;;;4.72;1.10;;;8.70;99.90;;;;;;5077118;28;20170;-82
2022/12/07 10:45:50;;;;;;;4.45;0.63;;;8.80;99.90;;;;;;5077099;28;20080;-82
2022/12/07 10:48:20;;;;;;;4.00;0.60;;;9.00;99.90;;;;;;5077394;28;20048;-82
2022/12/07 10:50:52;;;;;;;6.82;0.70;;;9.10;99.90;;;;;;5076768;28;20044;-81
2022/12/07 10:53:24;;;;;;;1.70;0.50;;;9.00;99.90;;;;;;5059618;28;20046;-81
2022/12/07 10:56:20;;;;;;;1.60;0.60;;;8.90;99.90;;;;;;5056023;28;20063;-81
2022/12/07 10:58:59;;;;;;;0.75;0.47;;;8.80;99.90;;;;;;5039984;28;20514;-81
2022/12/07 11:01:29;;;;;;;1.60;0.50;;;8.60;99.90;;;;;;5039995;28;20480;-81
2022/12/07 11:04:21;;;;;;;1.45;0.30;;;8.40;99.90;;;;;;5068021;28;20036;-81
2022/12/07 11:07:10;;;;;;;1.10;0.43;;;8.40;99.90;;;;;;5056562;28;20491;-81
2022/12/07 11:10:01;;;;;;;0.90;0.50;;;8.20;99.90;;;;;;5040212;28;20645;-82
2022/12/07 11:12:27;;;;;;;1.95;0.47;;;8.00;99.90;;;;;;5056288;28;20037;-82
2022/12/07 11:15:24;;;;;;;0.77;0.30;;;7.90;99.90;;;;;;5056383;28;20036;-82
2022/12/07 11:18:32;;;;;;;0.32;0.20;;;7.90;99.90;;;;;;5071246;28;20040;-82
2022/12/07 11:21:13;;;;;;;5.10;0.70;;;7.80;99.90;;;;;;5012407;28;20188;-82
2022/12/07 11:23:48;;;;;;;1.23;0.55;;;7.60;99.90;;;;;;5063203;28;20099;-82
2022/12/07 11:26:46;;;;;;;2.60;0.50;;;7.60;99.90;;;;;;5056509;28;20044;-82
2022/12/07 11:29:14;;;;;;;1.20;0.50;;;7.70;99.90;;;;;;5048310;28;20051;-82
2022/12/07 11:32:10;;;;;;;0.65;0.50;;;7.80;99.90;;;;;;5056538;28;20094;-82
2022/12/07 11:34:50;;;;;;;0.73;0.70;;;7.90;99.90;;;;;;5062159;28;20072;-82
2022/12/07 11:37:20;;;;;;;3.92;0.65;;;7.90;99.90;;;;;;5056385;28;20040;-82
2022/12/07 11:39:54;;;;;;;0.88;0.60;;;8.10;99.90;;;;;;5055637;28;20053;-82
2022/12/07 11:42:25;;;;;;;0.32;0.20;;;8.30;99.90;;;;;;5089512;28;20373;-81
2022/12/07 11:44:56;;;;;;;1.88;0.60;;;8.50;99.90;;;;;;5102393;28;20466;-81
2022/12/07 11:47:28;;;;;;;4.03;0.60;;;9.00;99.90;;;;;;5075982;28;20044;-81
2022/12/07 11:49:55;;;;;;;1.65;0.75;;;9.30;99.90;;;;;;5075763;28;20537;-81
2022/12/07 11:52:27;;;;;;;1.52;0.70;;;9.20;99.90;;;;;;5075484;28;20491;-81
2022/12/07 11:54:54;;;;;;;2.85;1.05;;;9.00;99.90;;;;;;5075601;28;20073;-81
2022/12/07 11:57:39;;;;;;;2.20;0.82;;;8.80;99.90;;;;;;5055644;28;20040;-81
2022/12/07 12:00:14;;;;;;;0.85;0.45;;;8.40;99.90;;;;;;5055497;28;20040;-81
2022/12/07 12:03:08;;;;;;;1.35;0.50;;;7.80;99.90;;;;;;5055642;28;20040;-81
2022/12/07 12:05:34;;;;;;;1.88;0.85;;;7.20;99.90;;;;;;5055264;28;20586;-80
2022/12/07 12:08:03;;;;;;;3.42;0.77;;;6.70;99.90;;;;;;5053711;28;20079;-81
2022/12/07 12:11:00;;;;;;;1.77;0.50;;;6.00;99.90;;;;;;5075269;28;20044;-81
2022/12/07 12:13:47;;;;;;;3.28;0.68;;;5.60;99.90;;;;;;5075658;28;20075;-84
2022/12/07 12:16:30;;;;;;;1.33;0.75;;;5.20;99.90;;;;;;5093535;28;20043;-85
2022/12/07 12:19:17;;;;;;;8.98;3.20;;;5.00;99.90;;;;;;5052820;28;20045;-85
2022/12/07 12:21:47;;;;;;;4.20;1.60;;;4.80;99.90;;;;;;5038755;28;20385;-85
2022/12/07 12:24:18;;;;;;;4.97;2.03;;;5.80;99.90;;;;;;5055356;28;20407;-85
2022/12/07 12:26:51;;;;;;;;;;;4.80;99.90;;;;;;5055613;28;20098;-85
2022/12/07 12:29:28;;;;;;;3.42;0.40;;;4.80;99.90;;;;;;5108635;28;19942;-85
2022/12/07 12:32:29;;;;;;;1.02;0.40;;;5.30;99.90;;;;;;5093208;28;20040;-80
2022/12/07 12:35:16;;;;;;;3.35;0.38;;;4.80;99.90;;;;;;5075161;28;20185;-81
2022/12/07 12:37:44;;;;;;;1.45;0.30;;;4.90;99.90;;;;;;5071340;28;20039;-81
2022/12/07 12:40:15;;;;;;;2.53;0.32;;;4.90;99.90;;;;;;5088274;28;20086;-81
2022/12/07 12:42:55;;;;;;;2.22;0.32;;;5.00;99.90;;;;;;5054734;28;20052;-80
2022/12/07 12:45:29;;;;;;;0.88;0.30;;;5.10;99.90;;;;;;5054652;28;20048;-81
2022/12/07 12:47:58;;;;;;;0.20;0.20;;;5.40;99.90;;;;;;5088275;28;20063;-81
2022/12/07 12:50:28;;;;;;;1.55;0.55;;;5.80;99.90;;;;;;5089554;28;20059;-81
2022/12/07 12:52:59;;;;;;;1.77;0.52;;;6.10;99.90;;;;;;5074024;28;20040;-81
2022/12/07 12:55:43;;;;;;;0.70;0.50;;;6.10;99.90;;;;;;5057965;28;20040;-81
2022/12/07 12:58:17;;;;;;;3.97;0.80;;;6.10;99.90;;;;;;5074492;28;20550;-81
2022/12/07 13:00:47;;;;;;;2.97;0.65;;;6.20;99.90;;;;;;5057966;28;20093;-81
2022/12/07 13:03:31;;;;;;;1.83;0.68;;;5.90;99.90;;;;;;5054166;28;20024;-81
2022/12/07 13:06:31;;;;;;;3.13;0.68;;;6.60;99.90;;;;;;5054436;28;20057;-81
2022/12/07 13:08:59;;;;;;;0.63;0.52;;;5.90;99.90;;;;;;5054308;28;20036;-81
2022/12/07 13:11:39;;;;;;;4.63;0.60;;;5.90;99.90;;;;;;5054514;28;20091;-81
2022/12/07 13:14:41;;;;;;;1.02;0.70;;;5.90;99.90;;;;;;5069421;28;20040;-82
2022/12/07 13:17:33;;;;;;;4.57;1.00;;;5.80;99.90;;;;;;5074163;28;20040;-82
2022/12/07 13:20:39;;;;;;;3.53;0.85;;;5.80;99.90;;;;;;5057319;28;20139;-81
2022/12/07 13:23:06;;;;;;;2.20;0.97;;;5.80;99.90;;;;;;5073572;28;20480;-81
2022/12/07 13:26:05;;;;;;;2.85;0.77;;;5.70;99.90;;;;;;5057835;28;20365;-85
2022/12/07 13:29:09;;;;;;;2.03;0.73;;;5.70;99.90;;;;;;5043718;28;20071;-85